Terminal Aerodrome Forecast
Issued by NWS

Home | Current Version | Previous Version | Text Only | Print | Product List | Glossary On
Versions: 1 2 3 4 5 6 7 8 9 10 11 12 13 14 15 16 17 18
649
FTUS46 KSEW 011120
TAFOLM
TAF
KOLM 011120Z 0112/0212 00000KT P6SM FEW035 SCT060 BKN100
      TEMPO 0112/0116 -SHRA SCT035 BKN060 OVC100
     FM011600 18008KT P6SM -SHRA SCT025 OVC050
     FM012200 19014G20KT P6SM -SHRA SCT025 OVC050
     FM020200 19006KT P6SM -SHRA SCT025 OVC050
     FM020900 VRB03KT 2SM BR BKN010 OVC025=

USA.gov is the U.S. government's official web portal to all federal, state and local government web resources and services.